sensor_id;sensor_type;location;lat;lon;timestamp;temperature;humidity
20735;DHT22;10528;52.124;5.196;2023-02-28T00:01:27;2.30;99.90
20735;DHT22;10528;52.124;5.196;2023-02-28T00:03:55;2.30;99.90
20735;DHT22;10528;52.124;5.196;2023-02-28T00:06:22;2.40;99.90
20735;DHT22;10528;52.124;5.196;2023-02-28T00:08:50;2.30;99.90
20735;DHT22;10528;52.124;5.196;2023-02-28T00:11:17;2.30;99.90
20735;DHT22;10528;52.124;5.196;2023-02-28T00:13:46;2.40;99.90
20735;DHT22;10528;52.124;5.196;2023-02-28T00:16:16;2.30;99.90
20735;DHT22;10528;52.124;5.196;2023-02-28T00:18:45;2.40;99.90
20735;DHT22;10528;52.124;5.196;2023-02-28T00:21:14;2.40;99.90
20735;DHT22;10528;52.124;5.196;2023-02-28T00:23:42;2.30;99.90
20735;DHT22;10528;52.124;5.196;2023-02-28T00:26:10;2.40;99.90
20735;DHT22;10528;52.124;5.196;2023-02-28T00:28:39;2.40;99.90
20735;DHT22;10528;52.124;5.196;2023-02-28T00:31:06;2.40;99.90
20735;DHT22;10528;52.124;5.196;2023-02-28T00:33:34;2.50;99.90
20735;DHT22;10528;52.124;5.196;2023-02-28T00:36:06;2.50;99.90
20735;DHT22;10528;52.124;5.196;2023-02-28T00:38:36;2.60;99.90
20735;DHT22;10528;52.124;5.196;2023-02-28T00:41:04;2.70;99.90
20735;DHT22;10528;52.124;5.196;2023-02-28T00:43:33;2.70;99.90
20735;DHT22;10528;52.124;5.196;2023-02-28T00:46:01;2.70;99.90
20735;DHT22;10528;52.124;5.196;2023-02-28T00:48:29;2.80;99.90
20735;DHT22;10528;52.124;5.196;2023-02-28T00:50:56;2.80;99.90
20735;DHT22;10528;52.124;5.196;2023-02-28T00:53:24;2.70;99.90
20735;DHT22;10528;52.124;5.196;2023-02-28T00:55:51;2.70;99.90
20735;DHT22;10528;52.124;5.196;2023-02-28T00:58:18;2.80;99.90
20735;DHT22;10528;52.124;5.196;2023-02-28T01:00:45;2.80;99.90
20735;DHT22;10528;52.124;5.196;2023-02-28T01:03:17;2.80;99.90
20735;DHT22;10528;52.124;5.196;2023-02-28T01:05:46;2.80;99.90
20735;DHT22;10528;52.124;5.196;2023-02-28T01:08:13;2.80;99.90
20735;DHT22;10528;52.124;5.196;2023-02-28T01:10:41;2.80;99.90
20735;DHT22;10528;52.124;5.196;2023-02-28T01:13:08;2.80;99.90
20735;DHT22;10528;52.124;5.196;2023-02-28T01:15:36;2.90;99.90
20735;DHT22;10528;52.124;5.196;2023-02-28T01:18:04;2.80;99.90
20735;DHT22;10528;52.124;5.196;2023-02-28T01:20:31;2.90;99.90
20735;DHT22;10528;52.124;5.196;2023-02-28T01:22:58;2.90;99.90
20735;DHT22;10528;52.124;5.196;2023-02-28T01:25:24;2.90;99.90
20735;DHT22;10528;52.124;5.196;2023-02-28T01:27:52;2.90;99.90
20735;DHT22;10528;52.124;5.196;2023-02-28T01:30:18;3.00;99.90
20735;DHT22;10528;52.124;5.196;2023-02-28T01:32:46;3.00;99.90
20735;DHT22;10528;52.124;5.196;2023-02-28T01:35:13;3.10;99.90
20735;DHT22;10528;52.124;5.196;2023-02-28T01:37:40;3.10;99.90
20735;DHT22;10528;52.124;5.196;2023-02-28T01:40:07;3.10;99.90
20735;DHT22;10528;52.124;5.196;2023-02-28T01:42:35;3.10;99.90
20735;DHT22;10528;52.124;5.196;2023-02-28T01:47:59;3.20;99.90
20735;DHT22;10528;52.124;5.196;2023-02-28T01:50:42;3.20;99.90
20735;DHT22;10528;52.124;5.196;2023-02-28T01:53:16;3.20;99.90
20735;DHT22;10528;52.124;5.196;2023-02-28T01:55:48;3.20;99.90
20735;DHT22;10528;52.124;5.196;2023-02-28T01:58:20;3.20;99.90
20735;DHT22;10528;52.124;5.196;2023-02-28T02:00:47;3.20;99.90
20735;DHT22;10528;52.124;5.196;2023-02-28T02:03:16;3.20;99.90
20735;DHT22;10528;52.124;5.196;2023-02-28T02:05:47;3.20;99.90
20735;DHT22;10528;52.124;5.196;2023-02-28T02:08:21;3.20;99.90
20735;DHT22;10528;52.124;5.196;2023-02-28T02:10:54;3.30;99.90
20735;DHT22;10528;52.124;5.196;2023-02-28T02:13:44;3.30;99.90
20735;DHT22;10528;52.124;5.196;2023-02-28T02:36:19;3.30;99.90
20735;DHT22;10528;52.124;5.196;2023-02-28T02:39:04;3.30;99.90
20735;DHT22;10528;52.124;5.196;2023-02-28T02:44:24;3.40;99.90
20735;DHT22;10528;52.124;5.196;2023-02-28T02:47:01;3.40;99.90
20735;DHT22;10528;52.124;5.196;2023-02-28T02:49:36;3.50;99.90
20735;DHT22;10528;52.124;5.196;2023-02-28T02:52:10;3.50;99.90
20735;DHT22;10528;52.124;5.196;2023-02-28T02:54:44;3.50;99.90
20735;DHT22;10528;52.124;5.196;2023-02-28T02:57:20;3.50;99.90
20735;DHT22;10528;52.124;5.196;2023-02-28T02:59:54;3.50;99.90
20735;DHT22;10528;52.124;5.196;2023-02-28T03:02:23;3.50;99.90
20735;DHT22;10528;52.124;5.196;2023-02-28T03:04:58;3.50;99.90
20735;DHT22;10528;52.124;5.196;2023-02-28T03:07:28;3.60;99.90
20735;DHT22;10528;52.124;5.196;2023-02-28T03:09:56;3.60;99.90
20735;DHT22;10528;52.124;5.196;2023-02-28T03:12:35;3.60;99.90
20735;DHT22;10528;52.124;5.196;2023-02-28T03:15:26;3.60;99.90
20735;DHT22;10528;52.124;5.196;2023-02-28T03:18:07;3.60;99.90
20735;DHT22;10528;52.124;5.196;2023-02-28T03:21:04;3.60;99.90
20735;DHT22;10528;52.124;5.196;2023-02-28T03:23:46;3.60;99.90
20735;DHT22;10528;52.124;5.196;2023-02-28T03:26:23;3.60;99.90
20735;DHT22;10528;52.124;5.196;2023-02-28T03:29:15;3.60;99.90
20735;DHT22;10528;52.124;5.196;2023-02-28T03:31:54;3.60;99.90
20735;DHT22;10528;52.124;5.196;2023-02-28T03:34:31;3.60;99.90
20735;DHT22;10528;52.124;5.196;2023-02-28T03:37:06;3.60;99.90
20735;DHT22;10528;52.124;5.196;2023-02-28T03:39:42;3.60;99.90
20735;DHT22;10528;52.124;5.196;2023-02-28T03:42:15;3.60;99.90
20735;DHT22;10528;52.124;5.196;2023-02-28T03:45:00;3.60;99.90
20735;DHT22;10528;52.124;5.196;2023-02-28T03:47:54;3.60;99.90
20735;DHT22;10528;52.124;5.196;2023-02-28T03:50:29;3.70;99.90
20735;DHT22;10528;52.124;5.196;2023-02-28T03:53:16;3.70;99.90
20735;DHT22;10528;52.124;5.196;2023-02-28T03:56:27;3.70;99.90
20735;DHT22;10528;52.124;5.196;2023-02-28T03:59:10;3.60;99.90
20735;DHT22;10528;52.124;5.196;2023-02-28T04:01:45;3.60;99.90
20735;DHT22;10528;52.124;5.196;2023-02-28T04:04:15;3.70;99.90
20735;DHT22;10528;52.124;5.196;2023-02-28T04:06:44;3.70;99.90
20735;DHT22;10528;52.124;5.196;2023-02-28T04:09:14;3.60;99.90
20735;DHT22;10528;52.124;5.196;2023-02-28T04:11:44;3.60;99.90
20735;DHT22;10528;52.124;5.196;2023-02-28T04:14:13;3.60;99.90
20735;DHT22;10528;52.124;5.196;2023-02-28T04:16:41;3.60;99.90
20735;DHT22;10528;52.124;5.196;2023-02-28T04:19:10;3.60;99.90
20735;DHT22;10528;52.124;5.196;2023-02-28T04:21:43;3.70;99.90
20735;DHT22;10528;52.124;5.196;2023-02-28T04:24:14;3.60;99.90
20735;DHT22;10528;52.124;5.196;2023-02-28T04:26:45;3.70;99.90
20735;DHT22;10528;52.124;5.196;2023-02-28T04:29:21;3.60;99.90
20735;DHT22;10528;52.124;5.196;2023-02-28T04:31:50;3.60;99.90
20735;DHT22;10528;52.124;5.196;2023-02-28T04:34:20;3.60;99.90
20735;DHT22;10528;52.124;5.196;2023-02-28T04:36:48;3.50;99.90
20735;DHT22;10528;52.124;5.196;2023-02-28T04:39:37;3.50;99.90
20735;DHT22;10528;52.124;5.196;2023-02-28T04:42:05;3.60;99.90
20735;DHT22;10528;52.124;5.196;2023-02-28T04:44:32;3.50;99.90
20735;DHT22;10528;52.124;5.196;2023-02-28T04:46:59;3.60;99.90
20735;DHT22;10528;52.124;5.196;2023-02-28T04:49:26;3.60;99.90
20735;DHT22;10528;52.124;5.196;2023-02-28T04:51:53;3.60;99.90
20735;DHT22;10528;52.124;5.196;2023-02-28T04:54:20;3.70;99.90
20735;DHT22;10528;52.124;5.196;2023-02-28T04:56:47;3.70;99.90
20735;DHT22;10528;52.124;5.196;2023-02-28T04:59:16;3.60;99.90
20735;DHT22;10528;52.124;5.196;2023-02-28T05:01:48;3.60;99.90
20735;DHT22;10528;52.124;5.196;2023-02-28T05:04:16;3.60;99.90
20735;DHT22;10528;52.124;5.196;2023-02-28T05:06:43;3.50;99.90
20735;DHT22;10528;52.124;5.196;2023-02-28T05:09:10;3.60;99.90
20735;DHT22;10528;52.124;5.196;2023-02-28T05:11:41;3.50;99.90
20735;DHT22;10528;52.124;5.196;2023-02-28T05:14:13;3.60;99.90
20735;DHT22;10528;52.124;5.196;2023-02-28T05:16:41;3.60;99.90
20735;DHT22;10528;52.124;5.196;2023-02-28T05:19:08;3.50;99.90
20735;DHT22;10528;52.124;5.196;2023-02-28T05:21:40;3.60;99.90
20735;DHT22;10528;52.124;5.196;2023-02-28T05:24:12;3.50;99.90
20735;DHT22;10528;52.124;5.196;2023-02-28T05:26:42;3.50;99.90
20735;DHT22;10528;52.124;5.196;2023-02-28T05:29:10;3.50;99.90
20735;DHT22;10528;52.124;5.196;2023-02-28T05:31:38;3.50;99.90
20735;DHT22;10528;52.124;5.196;2023-02-28T05:34:05;3.50;99.90
20735;DHT22;10528;52.124;5.196;2023-02-28T05:36:33;3.60;99.90
20735;DHT22;10528;52.124;5.196;2023-02-28T05:39:00;3.60;99.90
20735;DHT22;10528;52.124;5.196;2023-02-28T05:41:27;3.50;99.90
20735;DHT22;10528;52.124;5.196;2023-02-28T05:43:54;3.50;99.90
20735;DHT22;10528;52.124;5.196;2023-02-28T05:46:21;3.50;99.90
20735;DHT22;10528;52.124;5.196;2023-02-28T05:48:48;3.20;99.90
20735;DHT22;10528;52.124;5.196;2023-02-28T05:51:16;3.30;99.90
20735;DHT22;10528;52.124;5.196;2023-02-28T05:53:43;3.20;99.90
20735;DHT22;10528;52.124;5.196;2023-02-28T05:56:10;3.20;99.90
20735;DHT22;10528;52.124;5.196;2023-02-28T05:58:37;3.20;99.90
20735;DHT22;10528;52.124;5.196;2023-02-28T06:01:42;3.20;99.90
20735;DHT22;10528;52.124;5.196;2023-02-28T06:04:16;3.00;99.90
20735;DHT22;10528;52.124;5.196;2023-02-28T06:06:57;3.00;99.90
20735;DHT22;10528;52.124;5.196;2023-02-28T06:09:24;2.90;99.90
20735;DHT22;10528;52.124;5.196;2023-02-28T06:11:51;2.90;99.90
20735;DHT22;10528;52.124;5.196;2023-02-28T06:14:19;2.80;99.90
20735;DHT22;10528;52.124;5.196;2023-02-28T06:16:47;2.80;99.90
20735;DHT22;10528;52.124;5.196;2023-02-28T06:19:14;2.80;99.90
20735;DHT22;10528;52.124;5.196;2023-02-28T06:21:42;2.70;99.90
20735;DHT22;10528;52.124;5.196;2023-02-28T06:24:09;2.70;99.90
20735;DHT22;10528;52.124;5.196;2023-02-28T06:26:36;2.60;99.90
20735;DHT22;10528;52.124;5.196;2023-02-28T06:29:03;2.50;99.90
20735;DHT22;10528;52.124;5.196;2023-02-28T06:31:30;2.50;99.90
20735;DHT22;10528;52.124;5.196;2023-02-28T06:33:57;2.50;99.90
20735;DHT22;10528;52.124;5.196;2023-02-28T06:36:24;2.50;99.90
20735;DHT22;10528;52.124;5.196;2023-02-28T06:38:51;2.50;99.90
20735;DHT22;10528;52.124;5.196;2023-02-28T06:41:25;2.40;99.90
20735;DHT22;10528;52.124;5.196;2023-02-28T06:43:53;2.40;99.90
20735;DHT22;10528;52.124;5.196;2023-02-28T06:46:20;2.40;99.90
20735;DHT22;10528;52.124;5.196;2023-02-28T06:48:48;2.40;99.90
20735;DHT22;10528;52.124;5.196;2023-02-28T06:51:19;2.40;99.90
20735;DHT22;10528;52.124;5.196;2023-02-28T06:53:48;2.40;99.90
20735;DHT22;10528;52.124;5.196;2023-02-28T06:56:16;2.50;99.90
20735;DHT22;10528;52.124;5.196;2023-02-28T06:58:50;2.60;99.90
20735;DHT22;10528;52.124;5.196;2023-02-28T07:01:19;2.60;99.90
20735;DHT22;10528;52.124;5.196;2023-02-28T07:03:47;2.60;99.90
20735;DHT22;10528;52.124;5.196;2023-02-28T07:06:19;2.60;99.90
20735;DHT22;10528;52.124;5.196;2023-02-28T07:08:51;2.60;99.90
20735;DHT22;10528;52.124;5.196;2023-02-28T07:11:20;2.60;99.90
20735;DHT22;10528;52.124;5.196;2023-02-28T07:13:50;2.70;99.90
20735;DHT22;10528;52.124;5.196;2023-02-28T07:16:17;2.70;99.90
20735;DHT22;10528;52.124;5.196;2023-02-28T07:18:45;2.70;99.90
20735;DHT22;10528;52.124;5.196;2023-02-28T07:21:12;2.80;99.90
20735;DHT22;10528;52.124;5.196;2023-02-28T07:23:39;2.80;99.90
20735;DHT22;10528;52.124;5.196;2023-02-28T07:26:07;2.80;99.90
20735;DHT22;10528;52.124;5.196;2023-02-28T07:28:39;2.90;99.90
20735;DHT22;10528;52.124;5.196;2023-02-28T07:31:07;2.90;99.90
20735;DHT22;10528;52.124;5.196;2023-02-28T07:33:34;2.80;99.90
20735;DHT22;10528;52.124;5.196;2023-02-28T07:36:07;2.80;99.90
20735;DHT22;10528;52.124;5.196;2023-02-28T07:38:39;2.90;99.90
20735;DHT22;10528;52.124;5.196;2023-02-28T07:41:07;2.90;99.90
20735;DHT22;10528;52.124;5.196;2023-02-28T07:43:35;2.90;99.90
20735;DHT22;10528;52.124;5.196;2023-02-28T07:46:04;2.90;99.90
20735;DHT22;10528;52.124;5.196;2023-02-28T07:48:34;2.90;99.90
20735;DHT22;10528;52.124;5.196;2023-02-28T07:51:02;2.90;99.90
20735;DHT22;10528;52.124;5.196;2023-02-28T07:53:30;2.90;99.90
20735;DHT22;10528;52.124;5.196;2023-02-28T07:55:58;2.90;99.90
20735;DHT22;10528;52.124;5.196;2023-02-28T07:58:27;2.90;99.90
20735;DHT22;10528;52.124;5.196;2023-02-28T08:00:55;3.00;99.90
20735;DHT22;10528;52.124;5.196;2023-02-28T08:03:24;2.90;99.90
20735;DHT22;10528;52.124;5.196;2023-02-28T08:05:51;2.90;99.90
20735;DHT22;10528;52.124;5.196;2023-02-28T08:08:19;2.90;99.90
20735;DHT22;10528;52.124;5.196;2023-02-28T08:10:46;3.00;99.90
20735;DHT22;10528;52.124;5.196;2023-02-28T08:13:13;3.00;99.90
20735;DHT22;10528;52.124;5.196;2023-02-28T08:15:41;3.00;99.90
20735;DHT22;10528;52.124;5.196;2023-02-28T08:18:09;3.00;99.90
20735;DHT22;10528;52.124;5.196;2023-02-28T08:20:36;3.10;99.90
20735;DHT22;10528;52.124;5.196;2023-02-28T08:23:03;3.10;99.90
20735;DHT22;10528;52.124;5.196;2023-02-28T08:25:30;3.10;99.90
20735;DHT22;10528;52.124;5.196;2023-02-28T08:27:58;3.10;99.90
20735;DHT22;10528;52.124;5.196;2023-02-28T08:30:27;3.20;99.90
20735;DHT22;10528;52.124;5.196;2023-02-28T08:32:54;3.30;99.90
20735;DHT22;10528;52.124;5.196;2023-02-28T08:35:22;3.20;99.90
20735;DHT22;10528;52.124;5.196;2023-02-28T08:37:50;3.20;99.90
20735;DHT22;10528;52.124;5.196;2023-02-28T08:40:17;3.10;99.90
20735;DHT22;10528;52.124;5.196;2023-02-28T08:42:47;3.20;99.90
20735;DHT22;10528;52.124;5.196;2023-02-28T08:45:15;3.30;99.90
20735;DHT22;10528;52.124;5.196;2023-02-28T08:47:41;3.30;99.90
20735;DHT22;10528;52.124;5.196;2023-02-28T08:50:09;3.20;99.90
20735;DHT22;10528;52.124;5.196;2023-02-28T08:52:36;3.20;99.90
20735;DHT22;10528;52.124;5.196;2023-02-28T08:55:05;3.30;99.90
20735;DHT22;10528;52.124;5.196;2023-02-28T08:57:32;3.40;99.90
20735;DHT22;10528;52.124;5.196;2023-02-28T08:59:59;3.40;99.90
20735;DHT22;10528;52.124;5.196;2023-02-28T09:02:26;3.60;99.90
20735;DHT22;10528;52.124;5.196;2023-02-28T09:04:53;3.60;99.90
20735;DHT22;10528;52.124;5.196;2023-02-28T09:07:20;3.80;99.90
20735;DHT22;10528;52.124;5.196;2023-02-28T09:09:47;3.80;99.90
20735;DHT22;10528;52.124;5.196;2023-02-28T09:12:25;3.80;99.90
20735;DHT22;10528;52.124;5.196;2023-02-28T09:14:53;3.70;99.90
20735;DHT22;10528;52.124;5.196;2023-02-28T09:17:20;3.70;99.90
20735;DHT22;10528;52.124;5.196;2023-02-28T09:19:50;3.60;99.90
20735;DHT22;10528;52.124;5.196;2023-02-28T09:22:17;3.80;99.90
20735;DHT22;10528;52.124;5.196;2023-02-28T09:24:44;3.90;99.90
20735;DHT22;10528;52.124;5.196;2023-02-28T09:27:11;3.80;99.90
20735;DHT22;10528;52.124;5.196;2023-02-28T09:29:38;3.80;99.90
20735;DHT22;10528;52.124;5.196;2023-02-28T09:32:05;3.70;99.90
20735;DHT22;10528;52.124;5.196;2023-02-28T09:34:33;3.90;99.90
20735;DHT22;10528;52.124;5.196;2023-02-28T09:37:00;4.00;99.90
20735;DHT22;10528;52.124;5.196;2023-02-28T09:39:27;4.00;99.90
20735;DHT22;10528;52.124;5.196;2023-02-28T09:41:55;4.20;99.90
20735;DHT22;10528;52.124;5.196;2023-02-28T09:44:33;4.10;99.90
20735;DHT22;10528;52.124;5.196;2023-02-28T09:47:17;4.40;99.90
20735;DHT22;10528;52.124;5.196;2023-02-28T09:50:21;4.50;99.90
20735;DHT22;10528;52.124;5.196;2023-02-28T09:52:56;4.60;99.90
20735;DHT22;10528;52.124;5.196;2023-02-28T09:55:33;4.50;99.90
20735;DHT22;10528;52.124;5.196;2023-02-28T09:58:22;4.60;99.90
20735;DHT22;10528;52.124;5.196;2023-02-28T10:01:09;4.80;99.90
20735;DHT22;10528;52.124;5.196;2023-02-28T10:06:41;4.80;99.90
20735;DHT22;10528;52.124;5.196;2023-02-28T10:09:24;5.10;99.90
20735;DHT22;10528;52.124;5.196;2023-02-28T10:11:57;5.50;99.90
20735;DHT22;10528;52.124;5.196;2023-02-28T10:14:30;5.30;99.90
20735;DHT22;10528;52.124;5.196;2023-02-28T10:17:06;5.30;99.90
20735;DHT22;10528;52.124;5.196;2023-02-28T10:22:38;5.40;99.90
20735;DHT22;10528;52.124;5.196;2023-02-28T10:25:28;5.50;99.90
20735;DHT22;10528;52.124;5.196;2023-02-28T10:30:36;5.40;99.90
20735;DHT22;10528;52.124;5.196;2023-02-28T10:35:55;5.80;99.90
20735;DHT22;10528;52.124;5.196;2023-02-28T10:38:48;5.60;99.90
20735;DHT22;10528;52.124;5.196;2023-02-28T10:41:28;5.60;99.90
20735;DHT22;10528;52.124;5.196;2023-02-28T10:44:23;5.90;99.90
20735;DHT22;10528;52.124;5.196;2023-02-28T10:46:50;6.20;99.90
20735;DHT22;10528;52.124;5.196;2023-02-28T10:49:23;6.50;99.90
20735;DHT22;10528;52.124;5.196;2023-02-28T10:51:59;6.70;99.90
20735;DHT22;10528;52.124;5.196;2023-02-28T10:54:31;6.70;99.90
20735;DHT22;10528;52.124;5.196;2023-02-28T10:57:19;6.90;99.90
20735;DHT22;10528;52.124;5.196;2023-02-28T10:59:52;7.00;99.90
20735;DHT22;10528;52.124;5.196;2023-02-28T11:02:34;6.70;99.90
20735;DHT22;10528;52.124;5.196;2023-02-28T11:08:14;6.50;99.90
20735;DHT22;10528;52.124;5.196;2023-02-28T11:10:58;6.50;99.90
20735;DHT22;10528;52.124;5.196;2023-02-28T11:13:35;6.90;99.90
20735;DHT22;10528;52.124;5.196;2023-02-28T11:16:07;7.00;99.90
20735;DHT22;10528;52.124;5.196;2023-02-28T11:18:52;6.90;99.90
20735;DHT22;10528;52.124;5.196;2023-02-28T11:21:25;6.80;99.90
20735;DHT22;10528;52.124;5.196;2023-02-28T11:24:04;6.50;99.90
20735;DHT22;10528;52.124;5.196;2023-02-28T11:26:47;6.50;99.90
20735;DHT22;10528;52.124;5.196;2023-02-28T11:29:26;6.50;99.90
20735;DHT22;10528;52.124;5.196;2023-02-28T11:32:18;6.80;99.90
20735;DHT22;10528;52.124;5.196;2023-02-28T11:35:02;6.60;99.90
20735;DHT22;10528;52.124;5.196;2023-02-28T11:37:39;6.60;99.90
20735;DHT22;10528;52.124;5.196;2023-02-28T11:40:16;6.70;99.90
20735;DHT22;10528;52.124;5.196;2023-02-28T11:42:57;6.70;99.90
20735;DHT22;10528;52.124;5.196;2023-02-28T11:48:27;7.00;99.90
20735;DHT22;10528;52.124;5.196;2023-02-28T11:51:28;7.00;99.90
20735;DHT22;10528;52.124;5.196;2023-02-28T11:54:23;7.00;99.90
20735;DHT22;10528;52.124;5.196;2023-02-28T11:57:00;7.40;99.90
20735;DHT22;10528;52.124;5.196;2023-02-28T12:00:03;6.90;99.90
20735;DHT22;10528;52.124;5.196;2023-02-28T12:03:07;6.90;99.90
20735;DHT22;10528;52.124;5.196;2023-02-28T12:05:46;6.90;99.90
20735;DHT22;10528;52.124;5.196;2023-02-28T12:12:15;7.10;99.90
20735;DHT22;10528;52.124;5.196;2023-02-28T12:32:03;7.10;99.90
20735;DHT22;10528;52.124;5.196;2023-02-28T12:34:43;7.10;99.90
20735;DHT22;10528;52.124;5.196;2023-02-28T12:37:19;7.10;99.90
20735;DHT22;10528;52.124;5.196;2023-02-28T12:40:20;7.20;99.90
20735;DHT22;10528;52.124;5.196;2023-02-28T12:42:52;7.00;99.90
20735;DHT22;10528;52.124;5.196;2023-02-28T12:48:48;7.10;99.90
20735;DHT22;10528;52.124;5.196;2023-02-28T12:51:20;7.10;99.90
20735;DHT22;10528;52.124;5.196;2023-02-28T12:54:04;7.00;99.90
20735;DHT22;10528;52.124;5.196;2023-02-28T12:56:42;7.10;99.90
20735;DHT22;10528;52.124;5.196;2023-02-28T12:59:21;7.20;99.90
20735;DHT22;10528;52.124;5.196;2023-02-28T13:05:38;7.10;99.90
20735;DHT22;10528;52.124;5.196;2023-02-28T13:08:27;7.20;99.90
20735;DHT22;10528;52.124;5.196;2023-02-28T13:11:00;7.10;99.90
20735;DHT22;10528;52.124;5.196;2023-02-28T13:13:33;6.70;99.90
20735;DHT22;10528;52.124;5.196;2023-02-28T13:16:06;6.90;99.90
20735;DHT22;10528;52.124;5.196;2023-02-28T13:18:46;7.10;99.90
20735;DHT22;10528;52.124;5.196;2023-02-28T13:21:30;7.30;99.90
20735;DHT22;10528;52.124;5.196;2023-02-28T13:24:08;7.10;99.90
20735;DHT22;10528;52.124;5.196;2023-02-28T13:39:56;7.00;99.90
20735;DHT22;10528;52.124;5.196;2023-02-28T13:42:46;7.00;99.90
20735;DHT22;10528;52.124;5.196;2023-02-28T13:45:27;6.90;99.90
20735;DHT22;10528;52.124;5.196;2023-02-28T13:48:05;6.70;99.90
20735;DHT22;10528;52.124;5.196;2023-02-28T13:50:43;6.70;99.90
20735;DHT22;10528;52.124;5.196;2023-02-28T13:56:03;6.80;99.90
20735;DHT22;10528;52.124;5.196;2023-02-28T14:02:11;6.90;99.90
20735;DHT22;10528;52.124;5.196;2023-02-28T14:05:17;7.00;99.90
20735;DHT22;10528;52.124;5.196;2023-02-28T14:07:52;7.00;99.90
20735;DHT22;10528;52.124;5.196;2023-02-28T14:13:36;6.90;99.90
20735;DHT22;10528;52.124;5.196;2023-02-28T14:16:20;6.90;99.90
20735;DHT22;10528;52.124;5.196;2023-02-28T14:19:00;6.90;99.90
20735;DHT22;10528;52.124;5.196;2023-02-28T14:21:36;6.90;99.90
20735;DHT22;10528;52.124;5.196;2023-02-28T14:27:24;6.90;99.90
20735;DHT22;10528;52.124;5.196;2023-02-28T14:36:32;7.00;99.90
20735;DHT22;10528;52.124;5.196;2023-02-28T14:39:07;7.00;99.90
20735;DHT22;10528;52.124;5.196;2023-02-28T14:41:41;7.00;99.90
20735;DHT22;10528;52.124;5.196;2023-02-28T14:44:24;7.10;99.90
20735;DHT22;10528;52.124;5.196;2023-02-28T14:46:58;7.00;99.90
20735;DHT22;10528;52.124;5.196;2023-02-28T14:49:42;6.90;99.90
20735;DHT22;10528;52.124;5.196;2023-02-28T14:54:39;7.10;99.90
20735;DHT22;10528;52.124;5.196;2023-02-28T14:57:21;7.10;99.90
20735;DHT22;10528;52.124;5.196;2023-02-28T15:00:18;7.10;99.90
20735;DHT22;10528;52.124;5.196;2023-02-28T15:02:49;7.00;99.90
20735;DHT22;10528;52.124;5.196;2023-02-28T15:05:23;7.00;99.90
20735;DHT22;10528;52.124;5.196;2023-02-28T15:08:14;7.20;99.90
20735;DHT22;10528;52.124;5.196;2023-02-28T15:11:01;7.10;99.90
20735;DHT22;10528;52.124;5.196;2023-02-28T15:13:47;7.10;99.90
20735;DHT22;10528;52.124;5.196;2023-02-28T15:16:20;7.10;99.90
20735;DHT22;10528;52.124;5.196;2023-02-28T15:18:57;7.10;99.90
20735;DHT22;10528;52.124;5.196;2023-02-28T15:21:31;7.10;99.90
20735;DHT22;10528;52.124;5.196;2023-02-28T15:24:30;7.00;99.90
20735;DHT22;10528;52.124;5.196;2023-02-28T15:27:09;6.90;99.90
20735;DHT22;10528;52.124;5.196;2023-02-28T15:29:46;7.10;99.90
20735;DHT22;10528;52.124;5.196;2023-02-28T15:32:30;7.20;99.90
20735;DHT22;10528;52.124;5.196;2023-02-28T15:35:34;7.20;99.90
20735;DHT22;10528;52.124;5.196;2023-02-28T15:38:03;7.10;99.90
20735;DHT22;10528;52.124;5.196;2023-02-28T15:40:42;7.10;99.90
20735;DHT22;10528;52.124;5.196;2023-02-28T15:43:16;7.00;99.90
20735;DHT22;10528;52.124;5.196;2023-02-28T15:46:12;7.10;99.90
20735;DHT22;10528;52.124;5.196;2023-02-28T15:53:50;7.00;99.90
20735;DHT22;10528;52.124;5.196;2023-02-28T15:56:29;6.90;99.90
20735;DHT22;10528;52.124;5.196;2023-02-28T15:59:02;6.90;99.90
20735;DHT22;10528;52.124;5.196;2023-02-28T16:01:36;6.90;99.90
20735;DHT22;10528;52.124;5.196;2023-02-28T16:04:17;6.90;99.90
20735;DHT22;10528;52.124;5.196;2023-02-28T16:06:53;6.90;99.90
20735;DHT22;10528;52.124;5.196;2023-02-28T16:09:27;6.80;99.90
20735;DHT22;10528;52.124;5.196;2023-02-28T16:12:00;6.80;99.90
20735;DHT22;10528;52.124;5.196;2023-02-28T16:14:29;6.80;99.90
20735;DHT22;10528;52.124;5.196;2023-02-28T16:17:03;6.70;99.90
20735;DHT22;10528;52.124;5.196;2023-02-28T16:19:32;6.80;99.90
20735;DHT22;10528;52.124;5.196;2023-02-28T16:22:00;6.80;99.90
20735;DHT22;10528;52.124;5.196;2023-02-28T16:24:27;6.70;99.90
20735;DHT22;10528;52.124;5.196;2023-02-28T16:26:55;6.70;99.90
20735;DHT22;10528;52.124;5.196;2023-02-28T16:29:30;6.60;99.90
20735;DHT22;10528;52.124;5.196;2023-02-28T16:31:59;6.60;99.90
20735;DHT22;10528;52.124;5.196;2023-02-28T16:34:26;6.60;99.90
20735;DHT22;10528;52.124;5.196;2023-02-28T16:36:53;6.60;99.90
20735;DHT22;10528;52.124;5.196;2023-02-28T16:39:20;6.60;99.90
20735;DHT22;10528;52.124;5.196;2023-02-28T16:41:48;6.50;99.90
20735;DHT22;10528;52.124;5.196;2023-02-28T16:44:29;6.60;99.90
20735;DHT22;10528;52.124;5.196;2023-02-28T16:47:00;6.50;99.90
20735;DHT22;10528;52.124;5.196;2023-02-28T16:49:28;6.40;99.90
20735;DHT22;10528;52.124;5.196;2023-02-28T16:51:55;6.40;99.90
20735;DHT22;10528;52.124;5.196;2023-02-28T16:54:22;6.40;99.90
20735;DHT22;10528;52.124;5.196;2023-02-28T16:56:49;6.40;99.90
20735;DHT22;10528;52.124;5.196;2023-02-28T16:59:22;6.30;99.90
20735;DHT22;10528;52.124;5.196;2023-02-28T17:01:51;6.20;99.90
20735;DHT22;10528;52.124;5.196;2023-02-28T17:04:18;6.20;99.90
20735;DHT22;10528;52.124;5.196;2023-02-28T17:06:46;6.20;99.90
20735;DHT22;10528;52.124;5.196;2023-02-28T17:09:18;6.10;99.90
20735;DHT22;10528;52.124;5.196;2023-02-28T17:11:50;6.10;99.90
20735;DHT22;10528;52.124;5.196;2023-02-28T17:14:16;6.00;99.90
20735;DHT22;10528;52.124;5.196;2023-02-28T17:16:43;6.00;99.90
20735;DHT22;10528;52.124;5.196;2023-02-28T17:19:16;5.90;99.90
20735;DHT22;10528;52.124;5.196;2023-02-28T17:21:43;5.80;99.90
20735;DHT22;10528;52.124;5.196;2023-02-28T17:24:11;5.80;99.90
20735;DHT22;10528;52.124;5.196;2023-02-28T17:26:45;5.70;99.90
20735;DHT22;10528;52.124;5.196;2023-02-28T17:29:17;5.70;99.90
20735;DHT22;10528;52.124;5.196;2023-02-28T17:31:45;5.60;99.90
20735;DHT22;10528;52.124;5.196;2023-02-28T17:34:13;5.60;99.90
20735;DHT22;10528;52.124;5.196;2023-02-28T17:36:45;5.40;99.90
20735;DHT22;10528;52.124;5.196;2023-02-28T17:39:14;5.40;99.90
20735;DHT22;10528;52.124;5.196;2023-02-28T17:41:46;5.40;99.90
20735;DHT22;10528;52.124;5.196;2023-02-28T17:44:12;5.20;99.90
20735;DHT22;10528;52.124;5.196;2023-02-28T17:46:40;5.20;99.90
20735;DHT22;10528;52.124;5.196;2023-02-28T17:49:08;5.10;99.90
20735;DHT22;10528;52.124;5.196;2023-02-28T17:51:36;5.00;99.90
20735;DHT22;10528;52.124;5.196;2023-02-28T17:54:03;5.00;99.90
20735;DHT22;10528;52.124;5.196;2023-02-28T17:56:30;4.90;99.90
20735;DHT22;10528;52.124;5.196;2023-02-28T17:58:58;4.80;99.90
20735;DHT22;10528;52.124;5.196;2023-02-28T18:01:25;4.80;99.90
20735;DHT22;10528;52.124;5.196;2023-02-28T18:03:53;4.80;99.90
20735;DHT22;10528;52.124;5.196;2023-02-28T18:06:23;4.80;99.90
20735;DHT22;10528;52.124;5.196;2023-02-28T18:08:54;4.60;99.90
20735;DHT22;10528;52.124;5.196;2023-02-28T18:11:22;4.60;99.90
20735;DHT22;10528;52.124;5.196;2023-02-28T18:13:54;4.50;99.90